sensor_id;sensor_type;location;lat;lon;timestamp;P1;durP1;ratioP1;P2;durP2;ratioP2
58661;SDS011;44432;49.786;22.760;2023-05-29T00:00:15;5.60;;;3.50;;
58661;SDS011;44432;49.786;22.760;2023-05-29T00:03:09;12.70;;;4.20;;
58661;SDS011;44432;49.786;22.760;2023-05-29T00:05:40;8.70;;;3.70;;
58661;SDS011;44432;49.786;22.760;2023-05-29T00:08:11;6.80;;;3.40;;
58661;SDS011;44432;49.786;22.760;2023-05-29T00:10:42;6.60;;;3.30;;
58661;SDS011;44432;49.786;22.760;2023-05-29T00:13:13;7.80;;;3.30;;
58661;SDS011;44432;49.786;22.760;2023-05-29T00:15:44;5.20;;;3.40;;
58661;SDS011;44432;49.786;22.760;2023-05-29T00:18:15;6.20;;;3.30;;
58661;SDS011;44432;49.786;22.760;2023-05-29T00:20:45;8.80;;;3.90;;
58661;SDS011;44432;49.786;22.760;2023-05-29T00:23:16;7.00;;;3.70;;
58661;SDS011;44432;49.786;22.760;2023-05-29T00:25:47;6.20;;;3.40;;
58661;SDS011;44432;49.786;22.760;2023-05-29T00:28:18;6.90;;;3.90;;
58661;SDS011;44432;49.786;22.760;2023-05-29T00:30:49;8.70;;;4.40;;
58661;SDS011;44432;49.786;22.760;2023-05-29T00:33:20;8.30;;;3.80;;
58661;SDS011;44432;49.786;22.760;2023-05-29T00:35:50;7.90;;;3.90;;
58661;SDS011;44432;49.786;22.760;2023-05-29T00:38:21;9.60;;;4.10;;
58661;SDS011;44432;49.786;22.760;2023-05-29T00:40:52;7.60;;;3.90;;
58661;SDS011;44432;49.786;22.760;2023-05-29T00:43:22;6.80;;;3.80;;
58661;SDS011;44432;49.786;22.760;2023-05-29T00:45:53;6.70;;;4.00;;
58661;SDS011;44432;49.786;22.760;2023-05-29T00:48:24;10.00;;;3.70;;
58661;SDS011;44432;49.786;22.760;2023-05-29T00:50:55;6.70;;;4.00;;
58661;SDS011;44432;49.786;22.760;2023-05-29T00:53:26;8.00;;;4.20;;
58661;SDS011;44432;49.786;22.760;2023-05-29T00:55:58;6.90;;;3.40;;
58661;SDS011;44432;49.786;22.760;2023-05-29T00:58:30;6.10;;;3.70;;
58661;SDS011;44432;49.786;22.760;2023-05-29T01:01:01;9.20;;;3.70;;
58661;SDS011;44432;49.786;22.760;2023-05-29T01:03:33;6.10;;;3.60;;
58661;SDS011;44432;49.786;22.760;2023-05-29T01:06:04;7.40;;;4.10;;
58661;SDS011;44432;49.786;22.760;2023-05-29T01:08:35;8.30;;;4.50;;
58661;SDS011;44432;49.786;22.760;2023-05-29T01:11:08;5.70;;;3.60;;
58661;SDS011;44432;49.786;22.760;2023-05-29T01:13:49;7.20;;;3.80;;
58661;SDS011;44432;49.786;22.760;2023-05-29T01:16:25;7.80;;;3.80;;
58661;SDS011;44432;49.786;22.760;2023-05-29T01:19:12;6.60;;;3.30;;
58661;SDS011;44432;49.786;22.760;2023-05-29T01:21:59;5.10;;;2.90;;
58661;SDS011;44432;49.786;22.760;2023-05-29T01:24:41;6.30;;;3.60;;
58661;SDS011;44432;49.786;22.760;2023-05-29T01:27:19;9.90;;;3.90;;
58661;SDS011;44432;49.786;22.760;2023-05-29T01:29:53;9.20;;;3.60;;
58661;SDS011;44432;49.786;22.760;2023-05-29T01:32:27;6.40;;;3.10;;
58661;SDS011;44432;49.786;22.760;2023-05-29T01:34:58;6.50;;;3.90;;
58661;SDS011;44432;49.786;22.760;2023-05-29T01:37:29;9.00;;;3.80;;
58661;SDS011;44432;49.786;22.760;2023-05-29T01:40:00;5.00;;;3.40;;
58661;SDS011;44432;49.786;22.760;2023-05-29T01:42:32;6.00;;;3.70;;
58661;SDS011;44432;49.786;22.760;2023-05-29T01:45:03;6.80;;;3.90;;
58661;SDS011;44432;49.786;22.760;2023-05-29T01:47:36;7.30;;;4.20;;
58661;SDS011;44432;49.786;22.760;2023-05-29T01:50:08;6.90;;;3.80;;
58661;SDS011;44432;49.786;22.760;2023-05-29T01:52:39;7.50;;;4.70;;
58661;SDS011;44432;49.786;22.760;2023-05-29T01:55:10;8.70;;;4.10;;
58661;SDS011;44432;49.786;22.760;2023-05-29T01:57:41;8.30;;;3.90;;
58661;SDS011;44432;49.786;22.760;2023-05-29T02:00:13;8.70;;;3.50;;
58661;SDS011;44432;49.786;22.760;2023-05-29T02:02:47;8.10;;;4.10;;
58661;SDS011;44432;49.786;22.760;2023-05-29T02:05:18;7.60;;;3.70;;
58661;SDS011;44432;49.786;22.760;2023-05-29T02:07:49;8.50;;;4.10;;
58661;SDS011;44432;49.786;22.760;2023-05-29T02:10:20;6.80;;;4.00;;
58661;SDS011;44432;49.786;22.760;2023-05-29T02:12:51;7.20;;;3.90;;
58661;SDS011;44432;49.786;22.760;2023-05-29T02:15:21;6.80;;;3.60;;
58661;SDS011;44432;49.786;22.760;2023-05-29T02:17:52;9.30;;;3.80;;
58661;SDS011;44432;49.786;22.760;2023-05-29T02:20:23;8.40;;;4.20;;
58661;SDS011;44432;49.786;22.760;2023-05-29T02:22:53;9.80;;;4.10;;
58661;SDS011;44432;49.786;22.760;2023-05-29T02:25:24;6.40;;;3.90;;
58661;SDS011;44432;49.786;22.760;2023-05-29T02:27:55;7.20;;;3.70;;
58661;SDS011;44432;49.786;22.760;2023-05-29T02:30:26;5.60;;;3.70;;
58661;SDS011;44432;49.786;22.760;2023-05-29T02:32:57;8.00;;;3.60;;
58661;SDS011;44432;49.786;22.760;2023-05-29T02:35:27;5.50;;;3.50;;
58661;SDS011;44432;49.786;22.760;2023-05-29T02:37:58;7.70;;;3.60;;
58661;SDS011;44432;49.786;22.760;2023-05-29T02:40:29;7.30;;;3.50;;
58661;SDS011;44432;49.786;22.760;2023-05-29T02:43:00;7.50;;;3.50;;
58661;SDS011;44432;49.786;22.760;2023-05-29T02:45:30;7.90;;;4.00;;
58661;SDS011;44432;49.786;22.760;2023-05-29T02:48:01;6.80;;;3.70;;
58661;SDS011;44432;49.786;22.760;2023-05-29T02:50:32;7.30;;;3.80;;
58661;SDS011;44432;49.786;22.760;2023-05-29T02:53:03;9.00;;;4.00;;
58661;SDS011;44432;49.786;22.760;2023-05-29T02:55:34;7.00;;;3.80;;
58661;SDS011;44432;49.786;22.760;2023-05-29T02:58:04;10.10;;;4.10;;
58661;SDS011;44432;49.786;22.760;2023-05-29T03:00:35;6.50;;;3.70;;
58661;SDS011;44432;49.786;22.760;2023-05-29T03:03:06;7.40;;;4.20;;
58661;SDS011;44432;49.786;22.760;2023-05-29T03:05:37;7.90;;;4.00;;
58661;SDS011;44432;49.786;22.760;2023-05-29T03:08:08;7.30;;;4.10;;
58661;SDS011;44432;49.786;22.760;2023-05-29T03:10:38;8.30;;;3.80;;
58661;SDS011;44432;49.786;22.760;2023-05-29T03:13:09;10.40;;;4.10;;
58661;SDS011;44432;49.786;22.760;2023-05-29T03:15:40;8.80;;;3.90;;
58661;SDS011;44432;49.786;22.760;2023-05-29T03:18:10;8.30;;;4.40;;
58661;SDS011;44432;49.786;22.760;2023-05-29T03:20:41;8.00;;;4.50;;
58661;SDS011;44432;49.786;22.760;2023-05-29T03:23:12;7.10;;;4.10;;
58661;SDS011;44432;49.786;22.760;2023-05-29T03:25:43;7.80;;;4.00;;
58661;SDS011;44432;49.786;22.760;2023-05-29T03:28:14;6.40;;;3.60;;
58661;SDS011;44432;49.786;22.760;2023-05-29T03:30:44;7.60;;;3.90;;
58661;SDS011;44432;49.786;22.760;2023-05-29T03:33:15;9.00;;;4.00;;
58661;SDS011;44432;49.786;22.760;2023-05-29T03:35:46;8.70;;;4.10;;
58661;SDS011;44432;49.786;22.760;2023-05-29T03:38:17;7.10;;;4.30;;
58661;SDS011;44432;49.786;22.760;2023-05-29T03:40:47;8.10;;;4.00;;
58661;SDS011;44432;49.786;22.760;2023-05-29T03:43:18;7.60;;;4.00;;
58661;SDS011;44432;49.786;22.760;2023-05-29T03:45:49;6.90;;;4.10;;
58661;SDS011;44432;49.786;22.760;2023-05-29T03:48:19;8.30;;;4.10;;
58661;SDS011;44432;49.786;22.760;2023-05-29T03:50:50;7.20;;;4.50;;
58661;SDS011;44432;49.786;22.760;2023-05-29T03:53:21;6.10;;;3.80;;
58661;SDS011;44432;49.786;22.760;2023-05-29T03:55:51;6.00;;;4.00;;
58661;SDS011;44432;49.786;22.760;2023-05-29T03:58:22;7.00;;;4.00;;
58661;SDS011;44432;49.786;22.760;2023-05-29T04:00:53;7.30;;;4.00;;
58661;SDS011;44432;49.786;22.760;2023-05-29T04:03:24;10.30;;;4.20;;
58661;SDS011;44432;49.786;22.760;2023-05-29T04:05:55;9.90;;;4.80;;
58661;SDS011;44432;49.786;22.760;2023-05-29T04:08:26;7.60;;;4.00;;
58661;SDS011;44432;49.786;22.760;2023-05-29T04:10:57;7.30;;;4.10;;
58661;SDS011;44432;49.786;22.760;2023-05-29T04:13:29;8.20;;;3.90;;
58661;SDS011;44432;49.786;22.760;2023-05-29T04:15:59;6.90;;;3.70;;
58661;SDS011;44432;49.786;22.760;2023-05-29T04:18:30;8.30;;;4.10;;
58661;SDS011;44432;49.786;22.760;2023-05-29T04:21:01;7.30;;;4.00;;
58661;SDS011;44432;49.786;22.760;2023-05-29T04:23:32;10.30;;;3.80;;
58661;SDS011;44432;49.786;22.760;2023-05-29T04:26:03;10.20;;;5.20;;
58661;SDS011;44432;49.786;22.760;2023-05-29T04:28:34;9.70;;;4.70;;
58661;SDS011;44432;49.786;22.760;2023-05-29T04:31:06;7.80;;;4.00;;
58661;SDS011;44432;49.786;22.760;2023-05-29T04:33:41;8.60;;;3.60;;
58661;SDS011;44432;49.786;22.760;2023-05-29T04:36:13;8.70;;;4.30;;
58661;SDS011;44432;49.786;22.760;2023-05-29T04:38:44;9.70;;;4.10;;
58661;SDS011;44432;49.786;22.760;2023-05-29T04:41:15;8.50;;;3.90;;
58661;SDS011;44432;49.786;22.760;2023-05-29T04:43:46;7.00;;;3.70;;
58661;SDS011;44432;49.786;22.760;2023-05-29T04:46:17;24.00;;;8.50;;
58661;SDS011;44432;49.786;22.760;2023-05-29T04:48:48;8.70;;;4.80;;
58661;SDS011;44432;49.786;22.760;2023-05-29T04:51:20;7.60;;;4.00;;
58661;SDS011;44432;49.786;22.760;2023-05-29T04:53:52;6.70;;;3.90;;
58661;SDS011;44432;49.786;22.760;2023-05-29T04:56:23;10.60;;;4.40;;
58661;SDS011;44432;49.786;22.760;2023-05-29T04:58:54;7.30;;;3.80;;
58661;SDS011;44432;49.786;22.760;2023-05-29T05:01:26;8.70;;;4.20;;
58661;SDS011;44432;49.786;22.760;2023-05-29T05:03:56;5.70;;;3.70;;
58661;SDS011;44432;49.786;22.760;2023-05-29T05:06:28;10.80;;;4.00;;
58661;SDS011;44432;49.786;22.760;2023-05-29T05:08:59;9.20;;;4.50;;
58661;SDS011;44432;49.786;22.760;2023-05-29T05:11:30;8.30;;;4.60;;
58661;SDS011;44432;49.786;22.760;2023-05-29T05:14:01;10.80;;;5.40;;
58661;SDS011;44432;49.786;22.760;2023-05-29T05:16:32;8.40;;;5.00;;
58661;SDS011;44432;49.786;22.760;2023-05-29T05:19:02;10.80;;;4.60;;
58661;SDS011;44432;49.786;22.760;2023-05-29T05:21:33;8.90;;;4.60;;
58661;SDS011;44432;49.786;22.760;2023-05-29T05:24:04;7.30;;;4.60;;
58661;SDS011;44432;49.786;22.760;2023-05-29T05:26:35;8.20;;;4.30;;
58661;SDS011;44432;49.786;22.760;2023-05-29T05:29:06;9.90;;;4.40;;
58661;SDS011;44432;49.786;22.760;2023-05-29T05:31:37;7.70;;;4.60;;
58661;SDS011;44432;49.786;22.760;2023-05-29T05:34:07;8.90;;;4.80;;
58661;SDS011;44432;49.786;22.760;2023-05-29T05:36:38;9.70;;;5.10;;
58661;SDS011;44432;49.786;22.760;2023-05-29T05:39:09;11.20;;;5.20;;
58661;SDS011;44432;49.786;22.760;2023-05-29T05:41:40;9.70;;;5.00;;
58661;SDS011;44432;49.786;22.760;2023-05-29T05:44:10;14.50;;;6.50;;
58661;SDS011;44432;49.786;22.760;2023-05-29T05:46:41;11.60;;;5.50;;
58661;SDS011;44432;49.786;22.760;2023-05-29T05:49:12;8.10;;;4.80;;
58661;SDS011;44432;49.786;22.760;2023-05-29T05:51:43;9.00;;;4.50;;
58661;SDS011;44432;49.786;22.760;2023-05-29T05:54:14;9.00;;;4.80;;
58661;SDS011;44432;49.786;22.760;2023-05-29T05:56:44;7.80;;;4.70;;
58661;SDS011;44432;49.786;22.760;2023-05-29T05:59:15;9.00;;;4.70;;
58661;SDS011;44432;49.786;22.760;2023-05-29T06:01:46;9.60;;;4.50;;
58661;SDS011;44432;49.786;22.760;2023-05-29T06:04:16;7.10;;;4.50;;
58661;SDS011;44432;49.786;22.760;2023-05-29T06:06:47;7.20;;;4.90;;
58661;SDS011;44432;49.786;22.760;2023-05-29T06:09:18;8.70;;;5.80;;
58661;SDS011;44432;49.786;22.760;2023-05-29T06:11:49;8.00;;;5.10;;
58661;SDS011;44432;49.786;22.760;2023-05-29T06:14:19;10.90;;;4.60;;
58661;SDS011;44432;49.786;22.760;2023-05-29T06:16:50;14.30;;;4.60;;
58661;SDS011;44432;49.786;22.760;2023-05-29T06:19:21;9.90;;;4.80;;
58661;SDS011;44432;49.786;22.760;2023-05-29T06:21:52;11.00;;;5.60;;
58661;SDS011;44432;49.786;22.760;2023-05-29T06:24:23;12.60;;;4.90;;
58661;SDS011;44432;49.786;22.760;2023-05-29T06:26:54;12.30;;;5.10;;
58661;SDS011;44432;49.786;22.760;2023-05-29T06:29:24;10.40;;;5.20;;
58661;SDS011;44432;49.786;22.760;2023-05-29T06:31:55;14.50;;;5.00;;
58661;SDS011;44432;49.786;22.760;2023-05-29T06:34:26;12.40;;;5.40;;
58661;SDS011;44432;49.786;22.760;2023-05-29T06:36:57;13.80;;;7.60;;
58661;SDS011;44432;49.786;22.760;2023-05-29T06:39:27;13.30;;;7.10;;
58661;SDS011;44432;49.786;22.760;2023-05-29T06:41:58;16.40;;;6.90;;
58661;SDS011;44432;49.786;22.760;2023-05-29T06:44:30;16.00;;;6.10;;
58661;SDS011;44432;49.786;22.760;2023-05-29T06:47:00;13.80;;;6.50;;
58661;SDS011;44432;49.786;22.760;2023-05-29T06:49:31;11.90;;;6.40;;
58661;SDS011;44432;49.786;22.760;2023-05-29T06:52:02;14.00;;;5.40;;
58661;SDS011;44432;49.786;22.760;2023-05-29T06:54:33;10.20;;;4.70;;
58661;SDS011;44432;49.786;22.760;2023-05-29T06:57:04;9.30;;;3.80;;
58661;SDS011;44432;49.786;22.760;2023-05-29T06:59:35;11.80;;;4.40;;
58661;SDS011;44432;49.786;22.760;2023-05-29T07:02:06;11.90;;;4.80;;
58661;SDS011;44432;49.786;22.760;2023-05-29T07:04:36;12.60;;;5.10;;
58661;SDS011;44432;49.786;22.760;2023-05-29T07:07:07;13.20;;;5.60;;
58661;SDS011;44432;49.786;22.760;2023-05-29T07:09:38;9.50;;;4.30;;
58661;SDS011;44432;49.786;22.760;2023-05-29T07:12:09;12.80;;;4.00;;
58661;SDS011;44432;49.786;22.760;2023-05-29T07:14:39;14.10;;;4.30;;
58661;SDS011;44432;49.786;22.760;2023-05-29T07:17:10;13.90;;;4.30;;
58661;SDS011;44432;49.786;22.760;2023-05-29T07:19:41;11.20;;;5.30;;
58661;SDS011;44432;49.786;22.760;2023-05-29T07:22:11;11.20;;;4.70;;
58661;SDS011;44432;49.786;22.760;2023-05-29T07:24:42;10.50;;;5.10;;
58661;SDS011;44432;49.786;22.760;2023-05-29T07:27:14;9.60;;;4.60;;
58661;SDS011;44432;49.786;22.760;2023-05-29T07:29:45;8.60;;;4.30;;
58661;SDS011;44432;49.786;22.760;2023-05-29T07:32:15;13.50;;;4.80;;
58661;SDS011;44432;49.786;22.760;2023-05-29T07:34:46;11.10;;;5.50;;
58661;SDS011;44432;49.786;22.760;2023-05-29T07:37:18;12.30;;;7.60;;
58661;SDS011;44432;49.786;22.760;2023-05-29T07:39:48;11.80;;;7.00;;
58661;SDS011;44432;49.786;22.760;2023-05-29T07:42:19;11.90;;;7.40;;
58661;SDS011;44432;49.786;22.760;2023-05-29T07:44:50;14.60;;;6.90;;
58661;SDS011;44432;49.786;22.760;2023-05-29T07:47:21;15.30;;;5.60;;
58661;SDS011;44432;49.786;22.760;2023-05-29T07:49:52;12.60;;;6.60;;
58661;SDS011;44432;49.786;22.760;2023-05-29T07:52:22;14.90;;;7.10;;
58661;SDS011;44432;49.786;22.760;2023-05-29T07:54:53;14.00;;;8.00;;
58661;SDS011;44432;49.786;22.760;2023-05-29T07:57:24;16.30;;;7.70;;
58661;SDS011;44432;49.786;22.760;2023-05-29T07:59:54;13.00;;;6.20;;
58661;SDS011;44432;49.786;22.760;2023-05-29T08:02:25;10.40;;;5.70;;
58661;SDS011;44432;49.786;22.760;2023-05-29T08:04:56;8.30;;;4.90;;
58661;SDS011;44432;49.786;22.760;2023-05-29T08:07:27;10.40;;;4.90;;
58661;SDS011;44432;49.786;22.760;2023-05-29T08:09:58;10.60;;;5.00;;
58661;SDS011;44432;49.786;22.760;2023-05-29T08:12:28;6.40;;;4.60;;
58661;SDS011;44432;49.786;22.760;2023-05-29T08:14:59;16.70;;;5.10;;
58661;SDS011;44432;49.786;22.760;2023-05-29T08:17:30;8.30;;;4.40;;
58661;SDS011;44432;49.786;22.760;2023-05-29T08:20:01;8.30;;;4.10;;
58661;SDS011;44432;49.786;22.760;2023-05-29T08:25:03;9.40;;;3.70;;
58661;SDS011;44432;49.786;22.760;2023-05-29T08:27:36;10.30;;;4.10;;
58661;SDS011;44432;49.786;22.760;2023-05-29T08:30:07;7.10;;;3.40;;
58661;SDS011;44432;49.786;22.760;2023-05-29T08:32:39;9.70;;;4.10;;
58661;SDS011;44432;49.786;22.760;2023-05-29T08:35:10;10.50;;;3.50;;
58661;SDS011;44432;49.786;22.760;2023-05-29T08:37:41;10.20;;;3.40;;
58661;SDS011;44432;49.786;22.760;2023-05-29T08:40:13;7.70;;;3.60;;
58661;SDS011;44432;49.786;22.760;2023-05-29T08:42:45;15.30;;;4.50;;
58661;SDS011;44432;49.786;22.760;2023-05-29T08:45:25;14.50;;;3.30;;
58661;SDS011;44432;49.786;22.760;2023-05-29T08:47:57;11.30;;;3.30;;
58661;SDS011;44432;49.786;22.760;2023-05-29T08:50:29;7.60;;;3.60;;
58661;SDS011;44432;49.786;22.760;2023-05-29T08:53:00;7.00;;;3.80;;
58661;SDS011;44432;49.786;22.760;2023-05-29T08:55:32;8.10;;;3.50;;
58661;SDS011;44432;49.786;22.760;2023-05-29T08:58:03;8.10;;;3.60;;
58661;SDS011;44432;49.786;22.760;2023-05-29T09:00:35;9.40;;;3.50;;
58661;SDS011;44432;49.786;22.760;2023-05-29T09:03:06;12.30;;;3.60;;
58661;SDS011;44432;49.786;22.760;2023-05-29T09:05:38;11.60;;;3.90;;
58661;SDS011;44432;49.786;22.760;2023-05-29T09:08:10;9.00;;;3.40;;
58661;SDS011;44432;49.786;22.760;2023-05-29T09:10:43;9.00;;;3.50;;
58661;SDS011;44432;49.786;22.760;2023-05-29T09:13:14;9.10;;;4.00;;
58661;SDS011;44432;49.786;22.760;2023-05-29T09:15:45;6.70;;;3.20;;
58661;SDS011;44432;49.786;22.760;2023-05-29T09:18:17;9.00;;;3.70;;
58661;SDS011;44432;49.786;22.760;2023-05-29T09:20:48;9.10;;;3.80;;
58661;SDS011;44432;49.786;22.760;2023-05-29T09:23:19;12.20;;;3.80;;
58661;SDS011;44432;49.786;22.760;2023-05-29T09:25:52;8.40;;;3.50;;
58661;SDS011;44432;49.786;22.760;2023-05-29T09:28:23;7.10;;;3.70;;
58661;SDS011;44432;49.786;22.760;2023-05-29T09:30:56;9.00;;;3.60;;
58661;SDS011;44432;49.786;22.760;2023-05-29T09:33:27;10.50;;;3.40;;
58661;SDS011;44432;49.786;22.760;2023-05-29T09:35:58;6.90;;;2.90;;
58661;SDS011;44432;49.786;22.760;2023-05-29T09:38:30;7.30;;;2.80;;
58661;SDS011;44432;49.786;22.760;2023-05-29T09:41:01;9.60;;;3.80;;
58661;SDS011;44432;49.786;22.760;2023-05-29T09:43:34;9.70;;;3.00;;
58661;SDS011;44432;49.786;22.760;2023-05-29T09:46:07;8.90;;;3.50;;
58661;SDS011;44432;49.786;22.760;2023-05-29T09:48:44;7.40;;;3.10;;
58661;SDS011;44432;49.786;22.760;2023-05-29T09:51:22;10.30;;;3.80;;
58661;SDS011;44432;49.786;22.760;2023-05-29T09:53:54;7.90;;;3.40;;
58661;SDS011;44432;49.786;22.760;2023-05-29T09:56:28;8.00;;;3.40;;
58661;SDS011;44432;49.786;22.760;2023-05-29T10:01:30;14.00;;;3.60;;
58661;SDS011;44432;49.786;22.760;2023-05-29T10:04:02;7.90;;;3.70;;
58661;SDS011;44432;49.786;22.760;2023-05-29T10:06:32;11.00;;;3.80;;
58661;SDS011;44432;49.786;22.760;2023-05-29T10:09:10;11.50;;;3.40;;
58661;SDS011;44432;49.786;22.760;2023-05-29T10:11:44;9.10;;;3.30;;
58661;SDS011;44432;49.786;22.760;2023-05-29T10:14:18;6.50;;;3.20;;
58661;SDS011;44432;49.786;22.760;2023-05-29T10:16:50;5.80;;;3.20;;
58661;SDS011;44432;49.786;22.760;2023-05-29T10:19:27;6.90;;;3.00;;
58661;SDS011;44432;49.786;22.760;2023-05-29T10:22:01;6.20;;;3.70;;
58661;SDS011;44432;49.786;22.760;2023-05-29T10:24:34;7.50;;;3.40;;
58661;SDS011;44432;49.786;22.760;2023-05-29T10:27:07;12.10;;;3.60;;
58661;SDS011;44432;49.786;22.760;2023-05-29T10:29:39;9.50;;;4.00;;
58661;SDS011;44432;49.786;22.760;2023-05-29T10:32:23;9.70;;;3.80;;
58661;SDS011;44432;49.786;22.760;2023-05-29T10:35:00;9.70;;;3.40;;
58661;SDS011;44432;49.786;22.760;2023-05-29T10:37:40;9.00;;;4.80;;
58661;SDS011;44432;49.786;22.760;2023-05-29T10:40:15;10.20;;;3.70;;
58661;SDS011;44432;49.786;22.760;2023-05-29T10:42:51;11.00;;;4.00;;
58661;SDS011;44432;49.786;22.760;2023-05-29T10:48:37;10.40;;;4.20;;
58661;SDS011;44432;49.786;22.760;2023-05-29T10:51:23;8.30;;;3.80;;
58661;SDS011;44432;49.786;22.760;2023-05-29T10:53:55;9.30;;;4.10;;
58661;SDS011;44432;49.786;22.760;2023-05-29T10:56:28;8.50;;;4.10;;
58661;SDS011;44432;49.786;22.760;2023-05-29T10:59:00;9.50;;;4.10;;
58661;SDS011;44432;49.786;22.760;2023-05-29T11:01:31;7.60;;;4.40;;
58661;SDS011;44432;49.786;22.760;2023-05-29T11:06:59;7.80;;;3.60;;
58661;SDS011;44432;49.786;22.760;2023-05-29T11:09:34;10.90;;;3.80;;
58661;SDS011;44432;49.786;22.760;2023-05-29T11:12:12;7.80;;;3.80;;
58661;SDS011;44432;49.786;22.760;2023-05-29T11:14:54;6.50;;;3.60;;
58661;SDS011;44432;49.786;22.760;2023-05-29T11:17:31;13.60;;;4.20;;
58661;SDS011;44432;49.786;22.760;2023-05-29T11:20:16;7.40;;;3.90;;
58661;SDS011;44432;49.786;22.760;2023-05-29T11:23:00;10.30;;;3.80;;
58661;SDS011;44432;49.786;22.760;2023-05-29T11:25:35;8.30;;;3.80;;
58661;SDS011;44432;49.786;22.760;2023-05-29T11:28:08;8.10;;;3.60;;
58661;SDS011;44432;49.786;22.760;2023-05-29T11:30:43;7.90;;;3.90;;
58661;SDS011;44432;49.786;22.760;2023-05-29T11:33:22;12.60;;;3.70;;
58661;SDS011;44432;49.786;22.760;2023-05-29T11:35:56;8.40;;;4.00;;
58661;SDS011;44432;49.786;22.760;2023-05-29T11:38:28;7.40;;;3.70;;
58661;SDS011;44432;49.786;22.760;2023-05-29T11:41:00;8.50;;;3.40;;
58661;SDS011;44432;49.786;22.760;2023-05-29T11:43:31;12.30;;;4.10;;
58661;SDS011;44432;49.786;22.760;2023-05-29T11:46:02;9.20;;;3.70;;
58661;SDS011;44432;49.786;22.760;2023-05-29T11:48:45;7.10;;;4.20;;
58661;SDS011;44432;49.786;22.760;2023-05-29T11:51:16;9.60;;;4.10;;
58661;SDS011;44432;49.786;22.760;2023-05-29T11:53:48;8.30;;;3.60;;
58661;SDS011;44432;49.786;22.760;2023-05-29T11:56:25;12.00;;;3.50;;
58661;SDS011;44432;49.786;22.760;2023-05-29T11:58:57;12.50;;;3.50;;
58661;SDS011;44432;49.786;22.760;2023-05-29T12:01:34;9.20;;;3.70;;
58661;SDS011;44432;49.786;22.760;2023-05-29T12:04:14;8.10;;;3.50;;
58661;SDS011;44432;49.786;22.760;2023-05-29T12:06:45;8.50;;;3.50;;
58661;SDS011;44432;49.786;22.760;2023-05-29T12:09:26;7.40;;;3.60;;
58661;SDS011;44432;49.786;22.760;2023-05-29T12:12:02;8.60;;;3.80;;
58661;SDS011;44432;49.786;22.760;2023-05-29T12:14:34;8.50;;;3.90;;
58661;SDS011;44432;49.786;22.760;2023-05-29T12:17:05;7.50;;;3.40;;
58661;SDS011;44432;49.786;22.760;2023-05-29T12:19:36;10.30;;;3.80;;
58661;SDS011;44432;49.786;22.760;2023-05-29T12:22:07;10.80;;;3.90;;
58661;SDS011;44432;49.786;22.760;2023-05-29T12:24:38;12.80;;;4.70;;
58661;SDS011;44432;49.786;22.760;2023-05-29T12:27:09;8.40;;;3.70;;
58661;SDS011;44432;49.786;22.760;2023-05-29T12:29:40;6.70;;;3.70;;
58661;SDS011;44432;49.786;22.760;2023-05-29T12:32:11;5.10;;;3.50;;
58661;SDS011;44432;49.786;22.760;2023-05-29T12:34:42;8.20;;;3.70;;
58661;SDS011;44432;49.786;22.760;2023-05-29T12:37:20;10.70;;;3.30;;
58661;SDS011;44432;49.786;22.760;2023-05-29T12:42:43;7.60;;;3.70;;
58661;SDS011;44432;49.786;22.760;2023-05-29T12:45:13;7.00;;;3.50;;
58661;SDS011;44432;49.786;22.760;2023-05-29T12:47:48;10.20;;;3.20;;
58661;SDS011;44432;49.786;22.760;2023-05-29T12:50:21;7.60;;;4.20;;
58661;SDS011;44432;49.786;22.760;2023-05-29T12:52:59;9.70;;;3.40;;
58661;SDS011;44432;49.786;22.760;2023-05-29T12:55:32;9.50;;;3.80;;
58661;SDS011;44432;49.786;22.760;2023-05-29T12:58:05;9.10;;;3.90;;
58661;SDS011;44432;49.786;22.760;2023-05-29T13:00:37;7.20;;;3.40;;
58661;SDS011;44432;49.786;22.760;2023-05-29T13:03:09;7.80;;;3.70;;
58661;SDS011;44432;49.786;22.760;2023-05-29T13:05:40;7.60;;;3.90;;
58661;SDS011;44432;49.786;22.760;2023-05-29T13:08:11;7.60;;;3.40;;
58661;SDS011;44432;49.786;22.760;2023-05-29T13:10:42;7.90;;;3.40;;
58661;SDS011;44432;49.786;22.760;2023-05-29T13:13:13;14.60;;;3.90;;
58661;SDS011;44432;49.786;22.760;2023-05-29T13:15:44;9.40;;;3.70;;
58661;SDS011;44432;49.786;22.760;2023-05-29T13:18:14;12.00;;;3.60;;
58661;SDS011;44432;49.786;22.760;2023-05-29T13:20:45;6.70;;;3.30;;
58661;SDS011;44432;49.786;22.760;2023-05-29T13:23:16;7.70;;;3.40;;
58661;SDS011;44432;49.786;22.760;2023-05-29T13:25:46;8.60;;;3.60;;
58661;SDS011;44432;49.786;22.760;2023-05-29T13:28:17;7.60;;;3.20;;
58661;SDS011;44432;49.786;22.760;2023-05-29T13:30:49;6.80;;;3.50;;
58661;SDS011;44432;49.786;22.760;2023-05-29T13:33:19;7.60;;;3.80;;
58661;SDS011;44432;49.786;22.760;2023-05-29T13:35:50;8.30;;;3.80;;
58661;SDS011;44432;49.786;22.760;2023-05-29T13:38:21;6.70;;;3.50;;
58661;SDS011;44432;49.786;22.760;2023-05-29T13:40:52;11.70;;;4.10;;
58661;SDS011;44432;49.786;22.760;2023-05-29T13:43:22;6.40;;;3.30;;
58661;SDS011;44432;49.786;22.760;2023-05-29T13:45:53;8.90;;;3.40;;
58661;SDS011;44432;49.786;22.760;2023-05-29T13:48:24;7.30;;;3.50;;
58661;SDS011;44432;49.786;22.760;2023-05-29T13:50:55;6.70;;;3.70;;
58661;SDS011;44432;49.786;22.760;2023-05-29T13:53:25;7.60;;;3.50;;
58661;SDS011;44432;49.786;22.760;2023-05-29T13:55:56;10.70;;;3.70;;
58661;SDS011;44432;49.786;22.760;2023-05-29T13:58:27;8.30;;;3.60;;
58661;SDS011;44432;49.786;22.760;2023-05-29T14:00:57;9.80;;;4.10;;
58661;SDS011;44432;49.786;22.760;2023-05-29T14:03:28;9.10;;;4.60;;
58661;SDS011;44432;49.786;22.760;2023-05-29T14:05:59;7.50;;;4.80;;
58661;SDS011;44432;49.786;22.760;2023-05-29T14:08:32;10.20;;;4.30;;
58661;SDS011;44432;49.786;22.760;2023-05-29T14:11:03;6.60;;;3.60;;
58661;SDS011;44432;49.786;22.760;2023-05-29T14:13:34;10.70;;;3.90;;
58661;SDS011;44432;49.786;22.760;2023-05-29T14:16:05;8.30;;;4.10;;
58661;SDS011;44432;49.786;22.760;2023-05-29T14:18:35;6.50;;;4.30;;
58661;SDS011;44432;49.786;22.760;2023-05-29T14:21:06;13.00;;;4.80;;
58661;SDS011;44432;49.786;22.760;2023-05-29T14:23:38;7.80;;;4.30;;
58661;SDS011;44432;49.786;22.760;2023-05-29T14:26:09;9.60;;;4.60;;
58661;SDS011;44432;49.786;22.760;2023-05-29T14:28:40;13.80;;;4.40;;
58661;SDS011;44432;49.786;22.760;2023-05-29T14:31:10;8.20;;;3.80;;
58661;SDS011;44432;49.786;22.760;2023-05-29T14:33:41;9.50;;;4.00;;
58661;SDS011;44432;49.786;22.760;2023-05-29T14:36:12;8.70;;;4.00;;
58661;SDS011;44432;49.786;22.760;2023-05-29T14:38:43;6.50;;;3.70;;
58661;SDS011;44432;49.786;22.760;2023-05-29T14:41:14;8.80;;;4.60;;
58661;SDS011;44432;49.786;22.760;2023-05-29T14:43:44;8.90;;;4.60;;
58661;SDS011;44432;49.786;22.760;2023-05-29T14:46:15;9.10;;;4.60;;
58661;SDS011;44432;49.786;22.760;2023-05-29T14:48:46;8.00;;;3.70;;
58661;SDS011;44432;49.786;22.760;2023-05-29T14:51:17;8.50;;;4.00;;
58661;SDS011;44432;49.786;22.760;2023-05-29T14:53:48;8.40;;;4.20;;
58661;SDS011;44432;49.786;22.760;2023-05-29T14:56:19;7.90;;;4.90;;
58661;SDS011;44432;49.786;22.760;2023-05-29T14:58:50;9.00;;;4.30;;
58661;SDS011;44432;49.786;22.760;2023-05-29T15:01:21;7.50;;;4.10;;
58661;SDS011;44432;49.786;22.760;2023-05-29T15:03:52;8.50;;;4.00;;
58661;SDS011;44432;49.786;22.760;2023-05-29T15:06:23;9.90;;;4.30;;
58661;SDS011;44432;49.786;22.760;2023-05-29T15:08:53;6.90;;;4.20;;
58661;SDS011;44432;49.786;22.760;2023-05-29T15:11:24;8.50;;;3.60;;